Time;durP1;ratioP1;P1;durP2;ratioP2;P2;SDS_P1;SDS_P2;PMS_P1;PMS_P2;Temp;Humidity;BMP_temperature;BMP_pressure;BME280_temperature;BME280_humidity;BME280_pressure;Samples;Min_cycle;Max_cycle;Signal;HPM_P1;HPM_P2
2021/07/19 00:02:10;;;;;;;7.97;7.27;;;;;;;16.99;71.84;101432.50;5032313;28;20645;-76
2021/07/19 00:04:37;;;;;;;9.43;8.07;;;;;;;16.99;71.26;101443.91;5032872;28;20213;-76
2021/07/19 00:07:04;;;;;;;8.97;7.97;;;;;;;16.81;71.37;101452.34;5032598;28;20228;-76
2021/07/19 00:09:30;;;;;;;7.93;7.23;;;;;;;16.73;72.55;101407.72;5032447;28;20757;-75
2021/07/19 00:11:56;;;;;;;8.37;7.53;;;;;;;16.86;71.98;101411.75;5032276;28;20268;-74
2021/07/19 00:14:23;;;;;;;8.43;7.30;;;;;;;16.94;71.84;101426.50;5032037;28;20233;-76
2021/07/19 00:16:51;;;;;;;8.83;8.03;;;;;;;16.84;71.47;101439.94;5032237;28;20226;-75
2021/07/19 00:19:17;;;;;;;16.00;7.37;;;;;;;16.87;71.84;101433.72;5032666;28;20328;-76
2021/07/19 00:21:43;;;;;;;8.73;7.83;;;;;;;16.98;71.92;101436.88;5032446;28;20209;-75
2021/07/19 00:24:10;;;;;;;12.07;7.50;;;;;;;16.98;71.42;101451.84;5031867;28;20264;-76
2021/07/19 00:26:36;;;;;;;8.70;7.80;;;;;;;17.18;72.27;101402.00;5032428;28;20229;-76
2021/07/19 00:29:03;;;;;;;11.13;8.20;;;;;;;17.22;70.55;101481.91;5031782;28;20253;-76
2021/07/19 00:31:32;;;;;;;8.83;7.90;;;;;;;17.33;70.44;101494.81;5032085;28;20642;-76
2021/07/19 00:34:00;;;;;;;8.63;7.93;;;;;;;17.48;71.07;101462.63;5031296;28;20261;-75
2021/07/19 00:36:26;;;;;;;7.27;6.57;;;;;;;17.61;69.94;101506.25;5031592;28;20223;-76
2021/07/19 00:38:52;;;;;;;8.20;7.50;;;;;;;17.71;70.16;101505.97;5030922;28;20291;-76
2021/07/19 00:41:19;;;;;;;8.17;7.47;;;;;;;17.78;69.21;101541.81;5031452;28;20202;-76
2021/07/19 00:43:46;;;;;;;9.43;8.43;;;;;;;17.88;70.06;101529.22;5030745;28;20211;-74
2021/07/19 00:46:12;;;;;;;10.70;8.23;;;;;;;17.80;68.01;101584.88;5031384;28;20270;-76
2021/07/19 00:48:39;;;;;;;8.73;7.80;;;;;;;17.85;68.67;101557.47;5031704;28;20252;-76
2021/07/19 00:51:06;;;;;;;8.90;8.07;;;;;;;17.93;68.54;101559.84;5031683;28;20205;-76
2021/07/19 00:53:34;;;;;;;8.17;7.37;;;;;;;17.90;68.61;101557.34;5031183;28;20254;-76
2021/07/19 00:56:01;;;;;;;8.90;8.10;;;;;;;17.95;68.26;101565.09;5031466;28;20237;-76
2021/07/19 00:58:31;;;;;;;8.73;7.93;;;;;;;17.92;67.75;101575.75;5030750;28;20283;-74
2021/07/19 01:00:59;;;;;;;8.43;7.60;;;;;;;17.99;70.34;101492.75;5031602;28;20277;-76
2021/07/19 01:03:27;;;;;;;8.63;7.80;;;;;;;18.00;68.21;101557.91;5028660;28;20245;-76
2021/07/19 01:05:55;;;;;;;8.20;7.43;;;;;;;18.07;68.42;101551.50;5031495;28;20212;-75
2021/07/19 01:08:23;;;;;;;9.23;7.80;;;;;;;18.08;69.10;101518.88;5031037;28;20228;-75
2021/07/19 01:10:50;;;;;;;8.93;7.90;;;;;;;18.09;68.34;101544.38;5030848;28;20204;-74
2021/07/19 01:13:16;;;;;;;8.30;7.60;;;;;;;18.15;68.45;101527.47;5030442;28;20283;-75
2021/07/19 01:15:44;;;;;;;9.53;8.67;;;;;;;18.20;68.14;101547.53;5031410;28;20205;-75
2021/07/19 01:18:11;;;;;;;8.33;7.53;;;;;;;18.22;68.33;101532.50;5031254;28;20227;-75
2021/07/19 01:20:47;;;;;;;9.07;8.17;;;;;;;18.22;66.77;101606.50;5034456;28;20205;-75
2021/07/19 01:23:33;;;;;;;9.00;8.20;;;;;;;18.21;68.19;101537.81;5033427;28;20251;-76
2021/07/19 01:26:28;;;;;;;8.70;7.93;;;;;;;18.20;67.85;101566.03;5034793;28;20210;-75
2021/07/19 01:28:58;;;;;;;9.33;8.43;;;;;;;18.26;67.65;101563.19;5033792;28;20254;-75
2021/07/19 01:31:26;;;;;;;9.07;8.13;;;;;;;18.21;68.15;101554.53;5032247;28;20621;-76
2021/07/19 01:33:57;;;;;;;8.47;7.67;;;;;;;18.24;68.73;101506.03;5034685;28;20286;-76
2021/07/19 01:36:28;;;;;;;9.07;8.17;;;;;;;18.19;68.98;101498.22;5034848;28;20713;-75
2021/07/19 01:38:55;;;;;;;9.17;8.23;;;;;;;18.19;68.73;101518.50;5034340;28;20641;-76
2021/07/19 01:41:24;;;;;;;9.27;8.33;;;;;;;18.04;68.96;101504.06;5034524;28;20255;-76
2021/07/19 01:43:51;;;;;;;9.97;8.73;;;;;;;17.81;70.13;101438.72;5033612;28;20209;-76
2021/07/19 01:46:21;;;;;;;9.87;8.83;;;;;;;17.67;71.43;101387.22;5034908;28;20217;-76
2021/07/19 01:48:48;;;;;;;9.90;9.10;;;;;;;17.70;71.31;101396.84;5032790;28;20255;-76
2021/07/19 01:51:14;;;;;;;9.50;8.60;;;;;;;17.31;72.69;101357.63;5035497;28;20267;-75
2021/07/19 01:53:42;;;;;;;10.30;9.27;;;;;;;17.22;73.08;101327.13;5034392;28;20670;-76
2021/07/19 01:56:09;;;;;;;9.50;8.60;;;;;;;17.19;74.02;101297.34;5035140;28;20211;-76
2021/07/19 01:58:36;;;;;;;10.63;9.53;;;;;;;17.16;74.24;101293.00;5034712;28;20227;-76
2021/07/19 02:01:04;;;;;;;13.40;9.40;;;;;;;17.16;74.12;101290.34;5034986;28;20203;-76
2021/07/19 02:03:32;;;;;;;9.70;8.70;;;;;;;17.15;74.38;101286.00;5034799;28;20212;-75
2021/07/19 02:06:00;;;;;;;10.77;9.80;;;;;;;17.23;74.80;101272.56;5035113;28;20207;-76
2021/07/19 02:08:27;;;;;;;9.50;8.57;;;;;;;17.26;74.69;101277.72;5027346;28;20773;-76
2021/07/19 02:10:55;;;;;;;10.43;9.23;;;;;;;16.96;75.62;101250.59;5034744;28;20557;-75
2021/07/19 02:13:25;;;;;;;10.57;9.57;;;;;;;16.81;76.38;101226.44;5037437;28;20265;-76
2021/07/19 02:15:53;;;;;;;10.07;9.10;;;;;;;16.71;77.32;101197.75;5035062;28;20200;-75
2021/07/19 02:18:23;;;;;;;10.30;9.10;;;;;;;16.61;77.73;101171.69;5034843;28;20641;-77
2021/07/19 02:20:54;;;;;;;9.13;8.23;;;;;;;16.58;78.47;101161.25;5034728;28;20799;-77
2021/07/19 02:23:22;;;;;;;9.33;8.43;;;;;;;16.57;78.19;101146.34;5034078;28;20280;-76
2021/07/19 02:25:50;;;;;;;9.67;8.67;;;;;;;16.58;78.53;101157.75;5034980;28;20268;-75
2021/07/19 02:28:17;;;;;;;11.20;9.33;;;;;;;16.61;78.61;101152.34;5034540;28;20226;-76
2021/07/19 02:30:45;;;;;;;9.67;8.77;;;;;;;16.66;78.96;101145.19;5033293;28;20257;-76
2021/07/19 02:33:12;;;;;;;9.20;8.30;;;;;;;16.68;78.42;101165.28;5033963;28;20207;-76
2021/07/19 02:35:42;;;;;;;9.10;8.20;;;;;;;16.71;78.90;101150.28;5034419;28;20205;-76
2021/07/19 02:38:11;;;;;;;8.73;7.77;;;;;;;16.78;77.62;101191.38;5034058;28;20237;-76
2021/07/19 02:40:39;;;;;;;8.27;7.20;;;;;;;16.94;77.38;101189.13;5026081;28;20203;-76
2021/07/19 02:43:09;;;;;;;7.77;7.00;;;;;;;16.80;77.42;101203.59;5033849;28;20202;-76
2021/07/19 02:45:37;;;;;;;8.90;7.17;;;;;;;16.71;77.89;101184.56;5033828;28;20215;-76
2021/07/19 02:48:05;;;;;;;8.20;7.40;;;;;;;16.63;78.08;101182.16;5033768;28;20220;-76
2021/07/19 02:50:32;;;;;;;11.03;7.80;;;;;;;16.61;77.87;101169.06;5034241;28;20211;-76
2021/07/19 02:53:00;;;;;;;8.60;7.77;;;;;;;16.55;78.42;101171.00;5033966;28;20214;-76
2021/07/19 02:55:30;;;;;;;9.57;7.80;;;;;;;16.56;78.20;101185.94;5034086;28;20206;-76
2021/07/19 02:57:57;;;;;;;9.60;7.57;;;;;;;16.50;78.24;101189.63;5033597;28;20223;-76
2021/07/19 03:00:23;;;;;;;8.37;7.17;;;;;;;16.44;77.06;101232.84;5033791;28;20209;-75
2021/07/19 03:02:54;;;;;;;8.13;7.10;;;;;;;16.52;77.45;101219.41;5033829;28;20268;-74
2021/07/19 03:05:23;;;;;;;8.97;8.07;;;;;;;16.68;77.33;101210.09;5033982;28;20210;-76
2021/07/19 03:07:54;;;;;;;12.33;7.53;;;;;;;16.86;76.58;101213.09;5033589;28;20226;-76
2021/07/19 03:10:23;;;;;;;9.27;7.40;;;;;;;16.99;75.70;101282.16;5025428;28;20206;-76
2021/07/19 03:12:55;;;;;;;10.80;7.60;;;;;;;16.99;74.84;101317.28;5033347;28;20207;-75
2021/07/19 03:15:27;;;;;;;9.37;6.67;;;;;;;17.06;74.35;101345.19;5033353;28;20227;-76
2021/07/19 03:17:55;;;;;;;10.47;6.97;;;;;;;16.91;74.28;101343.06;5033667;28;20277;-76
2021/07/19 03:20:22;;;;;;;11.33;7.20;;;;;;;17.01;75.09;101310.19;5033427;28;20622;-76
2021/07/19 03:22:52;;;;;;;9.37;6.77;;;;;;;17.02;74.86;101311.06;5033200;28;20210;-76
2021/07/19 03:25:23;;;;;;;7.57;6.77;;;;;;;16.93;75.25;101301.66;5033337;28;20208;-76
2021/07/19 03:27:51;;;;;;;11.17;7.63;;;;;;;16.68;76.29;101265.47;5033327;28;20238;-75
2021/07/19 03:30:20;;;;;;;8.07;7.00;;;;;;;16.51;77.27;101227.38;5033260;28;20208;-76
2021/07/19 03:32:48;;;;;;;9.40;7.57;;;;;;;16.47;78.08;101194.97;5033184;28;20298;-75
2021/07/19 03:35:17;;;;;;;10.87;7.23;;;;;;;16.57;78.32;101185.88;5033100;28;20208;-76
2021/07/19 03:37:44;;;;;;;10.53;6.60;;;;;;;16.67;78.02;101202.28;5033121;28;20243;-76
2021/07/19 03:40:12;;;;;;;8.47;7.17;;;;;;;16.77;77.77;101211.59;5024703;28;20233;-76
2021/07/19 03:42:39;;;;;;;14.17;6.57;;;;;;;16.79;75.37;101309.97;5032518;28;20203;-76
2021/07/19 03:45:10;;;;;;;8.50;6.83;;;;;;;16.87;75.00;101333.50;5032451;28;20208;-76
2021/07/19 03:47:36;;;;;;;8.33;5.60;;;;;;;16.91;72.73;101416.91;5032610;28;20618;-76
2021/07/19 03:50:04;;;;;;;8.33;5.33;;;;;;;17.00;72.11;101437.72;5032913;28;20266;-76
2021/07/19 03:52:30;;;;;;;6.53;4.53;;;;;;;17.04;70.72;101480.69;5032832;28;20269;-75
2021/07/19 03:54:58;;;;;;;7.40;4.90;;;;;;;17.10;70.75;101490.22;5033138;28;20220;-76
2021/07/19 03:57:26;;;;;;;8.77;5.13;;;;;;;17.12;70.62;101501.56;5032809;28;20229;-76
2021/07/19 03:59:54;;;;;;;6.10;4.10;;;;;;;17.07;69.57;101543.94;5032522;28;20224;-76
2021/07/19 04:02:23;;;;;;;7.13;4.50;;;;;;;16.94;69.02;101577.69;5032488;28;20213;-76
2021/07/19 04:05:01;;;;;;;8.07;4.27;;;;;;;17.02;69.85;101527.34;5032567;28;20704;-75
2021/07/19 04:07:28;;;;;;;6.20;4.10;;;;;;;17.06;69.43;101545.69;5032359;28;20232;-76
2021/07/19 04:09:55;;;;;;;8.17;4.73;;;;;;;17.09;68.97;101570.28;5032550;28;20202;-76
2021/07/19 04:12:22;;;;;;;7.53;4.20;;;;;;;17.11;68.73;101581.66;5032176;28;20204;-76
2021/07/19 04:14:49;;;;;;;5.23;4.13;;;;;;;17.18;68.51;101597.25;5032053;28;20264;-76
2021/07/19 04:17:15;;;;;;;6.27;4.67;;;;;;;17.12;67.54;101628.22;5032180;28;20226;-75
2021/07/19 04:19:45;;;;;;;4.73;4.23;;;;;;;17.15;67.69;101631.66;5032581;28;20227;-76
2021/07/19 04:22:12;;;;;;;5.67;3.57;;;;;;;17.15;68.23;101604.41;5031950;28;20700;-76
2021/07/19 04:24:38;;;;;;;9.27;4.37;;;;;;;17.18;67.30;101638.59;5032230;28;20216;-76
2021/07/19 04:27:05;;;;;;;8.47;4.10;;;;;;;17.24;66.40;101688.56;5032256;28;20227;-76
2021/07/19 04:29:32;;;;;;;6.20;4.53;;;;;;;17.23;66.20;101692.13;5032059;28;20207;-76
2021/07/19 04:31:59;;;;;;;6.60;3.70;;;;;;;17.22;66.38;101678.09;5031801;28;20211;-74
2021/07/19 04:34:30;;;;;;;5.77;4.20;;;;;;;17.24;66.22;101678.00;5032391;28;20219;-76
2021/07/19 04:37:01;;;;;;;4.27;3.57;;;;;;;17.07;65.10;101742.66;5032006;28;20274;-77
2021/07/19 04:39:28;;;;;;;13.37;4.93;;;;;;;16.91;65.39;101736.03;5023956;28;20236;-76
2021/07/19 04:41:55;;;;;;;9.43;4.03;;;;;;;16.70;66.04;101697.81;5031436;28;20218;-75
2021/07/19 04:44:25;;;;;;;5.90;3.93;;;;;;;16.88;66.62;101665.75;5032172;28;20211;-75
2021/07/19 04:46:52;;;;;;;6.97;3.77;;;;;;;16.88;64.49;101728.19;5031850;28;20288;-76
2021/07/19 04:49:18;;;;;;;4.73;3.13;;;;;;;16.88;65.74;101699.16;5032108;28;20249;-75
2021/07/19 04:51:46;;;;;;;5.40;3.23;;;;;;;16.98;66.72;101658.47;5032049;28;20216;-76
2021/07/19 04:54:20;;;;;;;6.23;3.53;;;;;;;17.06;66.06;101685.50;5030463;28;20271;-75
2021/07/19 04:56:47;;;;;;;7.20;4.20;;;;;;;17.16;66.92;101635.13;5031980;28;20226;-76
2021/07/19 04:59:16;;;;;;;8.27;4.03;;;;;;;17.22;65.72;101690.38;5031509;28;20253;-77
2021/07/19 05:01:45;;;;;;;10.87;4.10;;;;;;;17.24;66.26;101685.94;5031747;28;20210;-73
2021/07/19 05:04:14;;;;;;;7.83;4.20;;;;;;;17.24;65.59;101707.94;5031461;28;20261;-75
2021/07/19 05:06:44;;;;;;;6.93;3.90;;;;;;;17.22;64.96;101717.66;5031744;28;20221;-75
2021/07/19 05:09:15;;;;;;;6.27;3.87;;;;;;;17.27;66.83;101660.34;5031627;28;20790;-75
2021/07/19 05:11:43;;;;;;;5.90;4.50;;;;;;;17.30;65.34;101733.28;5031797;28;20203;-73
2021/07/19 05:14:10;;;;;;;7.60;4.10;;;;;;;17.20;66.02;101711.53;5031385;28;20207;-75
2021/07/19 05:16:37;;;;;;;6.80;3.97;;;;;;;17.26;66.68;101665.66;5031569;28;20290;-75
2021/07/19 05:19:04;;;;;;;13.70;4.40;;;;;;;17.01;66.26;101700.59;5031699;28;20301;-75
2021/07/19 05:21:33;;;;;;;8.07;4.20;;;;;;;16.87;67.54;101635.00;5031619;28;20239;-76
2021/07/19 05:23:59;;;;;;;7.83;3.90;;;;;;;16.83;67.90;101628.09;5031563;28;20206;-75
2021/07/19 05:26:27;;;;;;;9.30;4.47;;;;;;;16.94;67.29;101627.78;5031890;28;20227;-76
2021/07/19 05:28:56;;;;;;;8.70;4.20;;;;;;;16.93;68.52;101590.94;5031328;28;20208;-76
2021/07/19 05:31:22;;;;;;;6.17;4.60;;;;;;;16.88;69.37;101564.66;5031560;28;20266;-76
2021/07/19 05:33:49;;;;;;;8.80;4.60;;;;;;;16.80;69.41;101559.56;5031116;28;20261;-74
2021/07/19 05:36:15;;;;;;;9.00;5.30;;;;;;;16.67;70.58;101518.63;5031694;28;20261;-75
2021/07/19 05:38:42;;;;;;;8.90;5.03;;;;;;;16.63;71.32;101475.66;5024557;28;20261;-76
2021/07/19 05:41:08;;;;;;;6.13;4.37;;;;;;;16.53;70.82;101502.28;5035017;28;20214;-75
2021/07/19 05:43:37;;;;;;;6.07;4.33;;;;;;;16.55;70.53;101511.91;5031050;28;20210;-76
2021/07/19 05:46:04;;;;;;;8.73;5.57;;;;;;;16.59;71.40;101481.03;5030844;28;20271;-75
2021/07/19 05:48:30;;;;;;;6.07;5.17;;;;;;;16.55;72.44;101448.66;5031526;28;20264;-76
2021/07/19 05:50:57;;;;;;;9.73;6.57;;;;;;;16.45;73.38;101418.16;5031589;28;20253;-76
2021/07/19 05:53:24;;;;;;;6.37;5.13;;;;;;;16.55;73.20;101410.88;5030992;28;20715;-76
2021/07/19 05:55:51;;;;;;;10.23;5.10;;;;;;;16.46;72.72;101414.63;5030593;28;20199;-74
2021/07/19 05:58:18;;;;;;;8.57;5.53;;;;;;;16.56;73.97;101384.47;5029918;28;20325;-76
2021/07/19 06:00:46;;;;;;;11.60;5.20;;;;;;;16.61;73.57;101390.50;5033496;28;20303;-77
2021/07/19 06:03:12;;;;;;;9.03;5.03;;;;;;;16.59;73.68;101397.56;5036812;28;20206;-79
2021/07/19 06:05:39;;;;;;;7.10;4.40;;;;;;;16.54;72.18;101469.78;5038593;28;20206;-77
2021/07/19 06:08:06;;;;;;;8.10;5.30;;;;;;;16.46;72.51;101444.47;5039694;28;20230;-77
2021/07/19 06:10:33;;;;;;;6.97;5.03;;;;;;;16.33;73.58;101403.56;5039165;28;20202;-77
2021/07/19 06:12:59;;;;;;;7.93;5.07;;;;;;;16.33;73.80;101393.00;5040364;28;20239;-77
2021/07/19 06:15:26;;;;;;;9.00;5.03;;;;;;;16.28;73.11;101427.41;5039942;28;20206;-77
2021/07/19 06:17:54;;;;;;;7.67;5.07;;;;;;;16.32;73.64;101412.38;5039032;28;20241;-76
2021/07/19 06:20:27;;;;;;;8.33;5.60;;;;;;;16.31;73.37;101415.03;5038528;28;20252;-77
2021/07/19 06:23:00;;;;;;;7.87;5.73;;;;;;;16.31;74.16;101400.09;5036469;28;20305;-76
2021/07/19 06:25:27;;;;;;;6.63;5.13;;;;;;;16.52;74.67;101363.53;5039781;28;20576;-78
2021/07/19 06:27:54;;;;;;;7.77;5.47;;;;;;;16.57;74.54;101375.66;5039803;28;20229;-77
2021/07/19 06:30:20;;;;;;;8.40;5.30;;;;;;;16.58;74.62;101361.56;5038186;28;20235;-76
2021/07/19 06:32:47;;;;;;;8.63;5.40;;;;;;;16.37;73.15;101426.31;5034303;28;20210;-76
2021/07/19 06:35:14;;;;;;;9.07;5.60;;;;;;;16.36;73.85;101410.53;5034695;28;20206;-77
2021/07/19 06:37:41;;;;;;;9.33;5.83;;;;;;;16.36;73.75;101421.06;5034485;28;20229;-78
2021/07/19 06:40:11;;;;;;;7.60;5.27;;;;;;;16.60;72.38;101449.38;5021967;28;20221;-78
2021/07/19 06:42:38;;;;;;;9.47;4.60;;;;;;;16.75;69.68;101553.56;5035226;28;20747;-77
2021/07/19 06:45:06;;;;;;;6.00;4.50;;;;;;;16.70;67.57;101649.50;5034605;28;20240;-77
2021/07/19 06:47:32;;;;;;;6.07;5.47;;;;;;;16.85;68.29;101635.97;5034252;28;20240;-76
2021/07/19 06:49:59;;;;;;;8.17;4.60;;;;;;;17.13;69.19;101603.56;5033502;28;20210;-77
2021/07/19 06:52:27;;;;;;;6.27;5.00;;;;;;;17.11;66.45;101692.47;5030914;28;20260;-77
2021/07/19 06:54:54;;;;;;;7.13;4.50;;;;;;;17.20;66.82;101694.84;5033875;28;20198;-77
2021/07/19 06:57:20;;;;;;;7.03;4.47;;;;;;;17.21;64.42;101786.31;5033644;28;20227;-76
2021/07/19 06:59:47;;;;;;;5.07;4.57;;;;;;;17.16;65.03;101775.84;5033501;28;20701;-74
2021/07/19 07:02:14;;;;;;;7.03;4.43;;;;;;;16.92;66.91;101695.56;5032955;28;20202;-74
2021/07/19 07:04:41;;;;;;;14.83;5.43;;;;;;;17.03;67.09;101669.78;5033066;28;20672;-76
2021/07/19 07:07:08;;;;;;;6.03;4.07;;;;;;;17.06;66.91;101682.00;5035156;28;20253;-78
2021/07/19 07:09:36;;;;;;;6.73;5.17;;;;;;;16.93;67.75;101657.72;5033862;28;20592;-75
2021/07/19 07:12:03;;;;;;;6.90;4.87;;;;;;;17.03;67.66;101645.16;5032604;28;20255;-74
2021/07/19 07:14:29;;;;;;;5.70;4.63;;;;;;;16.92;66.51;101705.25;5032744;28;20194;-75
2021/07/19 07:16:56;;;;;;;6.33;4.40;;;;;;;17.14;66.84;101672.13;5032267;28;20716;-77
2021/07/19 07:19:23;;;;;;;5.03;3.53;;;;;;;17.15;65.75;101723.13;5034009;28;20324;-78
2021/07/19 07:21:49;;;;;;;5.17;3.60;;;;;;;17.28;64.02;101785.22;5035025;28;20223;-77
2021/07/19 07:24:16;;;;;;;4.30;3.60;;;;;;;17.23;62.99;101847.84;5035421;28;20205;-77
2021/07/19 07:26:44;;;;;;;3.80;3.50;;;;;;;17.25;65.38;101754.50;5033801;28;20502;-76
2021/07/19 07:29:10;;;;;;;6.50;4.10;;;;;;;17.32;63.68;101815.06;5036583;28;20208;-78
2021/07/19 07:31:37;;;;;;;7.70;3.90;;;;;;;17.26;64.88;101779.13;5038132;28;20226;-79
2021/07/19 07:34:05;;;;;;;6.00;3.77;;;;;;;17.35;65.26;101741.09;5036236;28;20256;-77
2021/07/19 07:36:33;;;;;;;4.80;4.30;;;;;;;17.42;64.82;101740.88;5033957;28;20778;-77
2021/07/19 07:39:00;;;;;;;7.97;3.60;;;;;;;17.40;65.21;101769.09;5032845;28;20210;-78
2021/07/19 07:41:29;;;;;;;8.10;4.57;;;;;;;17.37;64.76;101757.75;5034777;28;20219;-77
2021/07/19 07:43:57;;;;;;;6.83;4.40;;;;;;;17.25;66.07;101704.38;5034243;28;20198;-77
2021/07/19 07:46:24;;;;;;;4.73;4.00;;;;;;;17.18;65.69;101723.03;5033214;28;20786;-77
2021/07/19 07:48:51;;;;;;;8.57;4.23;;;;;;;17.35;66.40;101680.38;5034475;28;20199;-78
2021/07/19 07:51:18;;;;;;;6.77;4.07;;;;;;;17.34;65.25;101734.91;5034852;28;20194;-77
2021/07/19 07:53:44;;;;;;;5.40;3.60;;;;;;;17.34;64.46;101769.22;5035363;28;20252;-78
2021/07/19 07:56:11;;;;;;;6.30;3.83;;;;;;;17.59;63.73;101811.72;5036034;28;20206;-78
2021/07/19 07:58:38;;;;;;;5.97;3.83;;;;;;;17.66;63.78;101813.28;5035162;28;20254;-78
2021/07/19 08:01:06;;;;;;;5.23;3.70;;;;;;;17.77;63.31;101801.56;5034224;28;20714;-78
2021/07/19 08:03:32;;;;;;;7.87;3.80;;;;;;;17.96;63.00;101829.25;5035450;28;20200;-77
2021/07/19 08:05:59;;;;;;;6.10;3.70;;;;;;;17.89;61.49;101906.94;5036148;28;20202;-77
2021/07/19 08:08:25;;;;;;;6.33;4.27;;;;;;;17.80;61.30;101917.69;5036151;28;20218;-78
2021/07/19 08:10:52;;;;;;;5.60;3.63;;;;;;;17.96;63.33;101833.69;5035556;28;20200;-76
2021/07/19 08:13:18;;;;;;;8.03;3.60;;;;;;;18.06;61.88;101886.22;5031375;28;20674;-75
2021/07/19 08:15:47;;;;;;;6.87;3.53;;;;;;;18.31;61.76;101882.03;5032363;28;20195;-78
2021/07/19 08:18:16;;;;;;;6.83;3.60;;;;;;;18.55;59.88;101955.41;5034501;28;20237;-77
2021/07/19 08:20:43;;;;;;;3.47;3.07;;;;;;;18.52;58.84;102018.94;5032805;28;20253;-77
2021/07/19 08:23:09;;;;;;;6.37;3.47;;;;;;;18.66;59.62;101984.19;5032332;28;20261;-77
2021/07/19 08:25:35;;;;;;;7.77;4.00;;;;;;;18.55;59.62;101975.66;5032218;28;20257;-76
2021/07/19 08:28:02;;;;;;;8.70;3.70;;;;;;;18.53;59.59;101958.97;5033115;28;20220;-78
2021/07/19 08:30:29;;;;;;;10.97;3.70;;;;;;;18.50;58.50;102009.31;5036502;28;20273;-77
2021/07/19 08:32:55;;;;;;;7.07;4.10;;;;;;;18.09;57.95;102048.25;5033014;28;20203;-78
2021/07/19 08:35:23;;;;;;;5.17;3.37;;;;;;;18.02;57.23;102048.41;5032928;28;20740;-76
2021/07/19 08:37:50;;;;;;;6.03;3.23;;;;;;;18.02;56.78;102068.69;5032450;28;20286;-77
2021/07/19 08:40:20;;;;;;;7.27;3.73;;;;;;;18.26;58.01;102039.00;5032022;28;20311;-77
2021/07/19 08:42:48;;;;;;;9.93;3.80;;;;;;;18.51;57.30;102042.78;5029204;28;20237;-77
2021/07/19 08:45:15;;;;;;;5.80;3.27;;;;;;;18.77;56.35;102072.06;5032938;28;20204;-78
2021/07/19 08:47:43;;;;;;;5.30;3.03;;;;;;;18.71;53.73;102216.81;5033333;28;20228;-78
2021/07/19 08:50:11;;;;;;;5.67;3.50;;;;;;;18.54;54.45;102211.97;5035705;28;20200;-79
2021/07/19 08:52:39;;;;;;;4.93;3.20;;;;;;;18.73;55.37;102133.00;5036100;28;20208;-77
2021/07/19 08:55:08;;;;;;;4.67;3.50;;;;;;;18.82;55.26;102119.56;5035048;28;20215;-79
2021/07/19 08:57:35;;;;;;;5.80;3.57;;;;;;;18.71;54.89;102145.41;5037242;28;20780;-78
2021/07/19 09:00:06;;;;;;;5.03;2.90;;;;;;;18.69;53.06;102210.72;5038160;28;20220;-79
2021/07/19 09:02:32;;;;;;;5.13;3.20;;;;;;;18.87;54.55;102161.78;5037105;28;20200;-78
2021/07/19 09:04:59;;;;;;;5.87;3.40;;;;;;;19.02;54.01;102140.22;5032100;28;20533;-80
2021/07/19 09:07:26;;;;;;;5.07;3.03;;;;;;;19.07;53.50;102215.09;5031961;28;20220;-79
2021/07/19 09:09:54;;;;;;;3.97;2.80;;;;;;;19.08;53.34;102215.94;5033464;28;20208;-79
2021/07/19 09:12:31;;;;;;;5.40;2.97;;;;;;;19.14;53.27;102227.22;5032295;28;20209;-76
2021/07/19 09:14:57;;;;;;;4.67;3.27;;;;;;;19.08;53.80;102194.78;5031445;28;20645;-77
2021/07/19 09:17:26;;;;;;;6.47;3.97;;;;;;;19.24;54.54;102167.81;5029740;28;20627;-76
2021/07/19 09:19:53;;;;;;;4.27;2.80;;;;;;;19.27;55.35;102113.06;5030727;28;20210;-78
2021/07/19 09:22:25;;;;;;;5.80;3.40;;;;;;;19.13;54.78;102116.13;5029181;28;20728;-77
2021/07/19 09:24:54;;;;;;;5.03;3.50;;;;;;;18.86;55.03;102115.94;5029585;28;20572;-77
2021/07/19 09:27:22;;;;;;;4.97;3.33;;;;;;;18.48;55.15;102114.28;5031338;28;20240;-76
2021/07/19 09:29:49;;;;;;;6.03;3.20;;;;;;;18.36;56.94;102034.34;5031240;28;20203;-77
2021/07/19 09:32:16;;;;;;;5.67;2.80;;;;;;;18.58;55.82;102024.06;5031670;28;20268;-76
2021/07/19 09:34:43;;;;;;;4.13;3.10;;;;;;;18.50;55.88;102063.06;5032376;28;20203;-74
2021/07/19 09:37:11;;;;;;;7.30;3.53;;;;;;;18.60;55.85;102034.59;5030476;28;20237;-75
2021/07/19 09:39:41;;;;;;;4.97;3.03;;;;;;;18.88;58.40;101931.53;5030633;28;20197;-77
2021/07/19 09:42:11;;;;;;;5.53;3.13;;;;;;;18.81;55.93;102046.38;5033618;28;20224;-77
2021/07/19 09:44:38;;;;;;;3.97;3.10;;;;;;;18.55;57.34;102000.34;5034815;28;20255;-76
2021/07/19 09:47:07;;;;;;;3.87;2.73;;;;;;;18.52;56.61;102016.28;5033940;28;20285;-75
2021/07/19 09:49:35;;;;;;;4.87;3.50;;;;;;;18.59;55.42;102056.66;5031527;28;20196;-77
2021/07/19 09:52:03;;;;;;;7.53;3.50;;;;;;;18.68;54.29;102092.59;5033924;28;20202;-78
2021/07/19 09:54:35;;;;;;;7.27;3.50;;;;;;;18.99;54.77;102084.72;5034149;28;20200;-78
2021/07/19 09:57:01;;;;;;;5.70;3.53;;;;;;;18.90;53.33;102127.31;5032633;28;20224;-75
2021/07/19 09:59:29;;;;;;;5.00;3.20;;;;;;;18.71;54.98;102074.88;5034582;28;20206;-77
2021/07/19 10:01:56;;;;;;;7.37;4.10;;;;;;;18.69;55.21;102066.09;5034059;28;20219;-74
2021/07/19 10:04:22;;;;;;;4.97;3.17;;;;;;;19.04;54.27;102065.13;5034244;28;20211;-77
2021/07/19 10:06:52;;;;;;;8.53;3.37;;;;;;;19.27;54.57;102074.22;5034319;28;20290;-78
2021/07/19 10:09:20;;;;;;;5.07;3.83;;;;;;;19.28;53.17;102146.56;5034273;28;20204;-76
2021/07/19 10:11:49;;;;;;;3.53;2.97;;;;;;;19.36;53.13;102132.19;5035934;28;20583;-77
2021/07/19 10:14:26;;;;;;;4.83;3.03;;;;;;;19.25;53.16;102159.00;5034237;28;20203;-76
2021/07/19 10:16:55;;;;;;;8.83;3.60;;;;;;;19.13;52.85;102147.88;5033256;28;20235;-79
2021/07/19 10:19:24;;;;;;;4.60;3.43;;;;;;;19.02;52.76;102156.94;5038559;28;20205;-78
2021/07/19 10:21:51;;;;;;;6.00;3.43;;;;;;;19.20;50.85;102242.09;5038297;28;20216;-76
2021/07/19 10:24:19;;;;;;;5.00;3.77;;;;;;;19.55;51.43;102243.78;5038261;28;20203;-80
2021/07/19 10:26:46;;;;;;;3.77;3.47;;;;;;;19.82;50.67;102246.59;5038031;28;20313;-79
2021/07/19 10:29:13;;;;;;;4.77;4.00;;;;;;;19.68;50.46;102262.84;5033934;28;20209;-78
2021/07/19 10:31:39;;;;;;;4.53;3.30;;;;;;;19.70;49.83;102258.41;5035423;28;20212;-75
2021/07/19 10:34:08;;;;;;;5.63;3.57;;;;;;;19.75;50.54;102260.94;5034857;28;20202;-77
2021/07/19 10:36:41;;;;;;;5.60;4.03;;;;;;;19.79;50.16;102273.22;5031630;28;20229;-77
2021/07/19 10:39:10;;;;;;;7.50;4.03;;;;;;;19.84;52.08;102199.72;5033781;28;20348;-77
2021/07/19 10:41:37;;;;;;;3.87;3.43;;;;;;;19.89;51.28;102218.16;5035055;28;20246;-78
2021/07/19 10:44:06;;;;;;;5.50;3.73;;;;;;;20.15;49.43;102273.06;5034352;28;20200;-78
2021/07/19 10:46:34;;;;;;;4.93;3.80;;;;;;;20.29;49.80;102285.91;5031921;28;20236;-77
2021/07/19 10:49:07;;;;;;;7.80;3.63;;;;;;;20.26;49.15;102307.19;5032639;28;20201;-77
2021/07/19 10:51:43;;;;;;;5.57;3.53;;;;;;;19.69;49.37;102301.69;5033826;28;20198;-76
2021/07/19 10:54:15;;;;;;;4.90;3.83;;;;;;;19.33;49.46;102301.78;5033582;28;20194;-77
2021/07/19 10:56:42;;;;;;;4.47;3.50;;;;;;;19.56;50.80;102218.16;5035882;28;20220;-76
2021/07/19 10:59:09;;;;;;;4.50;3.90;;;;;;;19.87;50.05;102239.41;5035263;28;20262;-76
2021/07/19 11:01:36;;;;;;;7.50;3.83;;;;;;;19.92;49.86;102279.00;5033177;28;20222;-75
2021/07/19 11:04:16;;;;;;;4.73;3.60;;;;;;;19.84;48.85;102314.56;5032940;28;20199;-76
2021/07/19 11:06:47;;;;;;;5.10;4.13;;;;;;;19.58;50.40;102261.38;5032736;28;20232;-77
2021/07/19 11:09:14;;;;;;;4.97;3.83;;;;;;;19.50;49.71;102261.59;5031924;28;20683;-78
2021/07/19 11:11:42;;;;;;;6.17;4.83;;;;;;;19.83;51.33;102177.66;5033867;28;20200;-77
2021/07/19 11:14:15;;;;;;;4.77;4.27;;;;;;;19.58;51.01;102204.00;5034081;28;20207;-77
2021/07/19 11:16:45;;;;;;;4.73;4.33;;;;;;;19.61;50.39;102213.63;5032676;28;20220;-77
2021/07/19 11:19:12;;;;;;;5.97;4.53;;;;;;;19.88;49.18;102216.41;5033970;28;20204;-78
2021/07/19 11:21:41;;;;;;;6.13;4.03;;;;;;;20.19;50.66;102216.34;5033585;28;20266;-77
2021/07/19 11:24:10;;;;;;;5.17;4.67;;;;;;;20.00;50.19;102235.47;5034213;28;20208;-77
2021/07/19 11:26:49;;;;;;;5.40;4.57;;;;;;;20.00;49.82;102235.47;5033659;28;20221;-77
2021/07/19 11:29:29;;;;;;;6.17;4.33;;;;;;;19.91;50.24;102243.69;5032677;28;20206;-77